Terminal Aerodrome Forecast
Issued by NWS

Home | Current Version | Previous Version | Text Only | Print | Product List | Glossary On
Versions: 1 2 3 4 5 6 7 8 9 10 11 12 13 14
627
FTUS46 KMTR 222334
TAFSNS
TAF
KSNS 222334Z 2300/2324 29014G19KT P6SM SKC
     FM230200 29012KT P6SM FEW010
      TEMPO 2302/2305 6SM BR BKN008
     FM230500 29005KT 5SM BR OVC004
     FM231730 27010KT P6SM FEW012
     FM232100 29014G20KT P6SM FEW012=

USA.gov is the U.S. government's official web portal to all federal, state and local government web resources and services.